createdAt,value
2024-05-09T00:00:36.264Z,0.00
2024-05-09T00:01:30.731Z,0.00
2024-05-09T00:02:30.775Z,0.00
2024-05-09T00:03:30.727Z,0.00
2024-05-09T00:04:30.675Z,0.00
2024-05-09T00:05:30.722Z,0.00
2024-05-09T00:06:30.649Z,0.00
2024-05-09T00:07:30.648Z,0.00
2024-05-09T00:08:30.826Z,0.00
2024-05-09T00:09:30.638Z,0.00
2024-05-09T00:10:36.113Z,0.00
2024-05-09T00:11:30.692Z,0.00
2024-05-09T00:12:30.741Z,0.00
2024-05-09T00:13:30.640Z,0.00
2024-05-09T00:14:30.750Z,0.00
2024-05-09T00:15:30.643Z,0.00
2024-05-09T00:16:30.635Z,0.00
2024-05-09T00:17:30.810Z,0.00
2024-05-09T00:18:30.697Z,0.00
2024-05-09T00:19:30.714Z,0.00
2024-05-09T00:20:38.207Z,0.00
2024-05-09T00:21:30.622Z,0.00
2024-05-09T00:22:30.627Z,0.00
2024-05-09T00:23:30.694Z,0.00
2024-05-09T00:24:30.620Z,0.00
2024-05-09T00:25:30.630Z,0.00
2024-05-09T00:26:30.727Z,0.00
2024-05-09T00:27:30.629Z,0.00
2024-05-09T00:28:30.631Z,0.00
2024-05-09T00:29:30.698Z,0.00
2024-05-09T00:30:35.224Z,0.00
2024-05-09T00:31:30.610Z,0.00
2024-05-09T00:32:30.768Z,0.00
2024-05-09T00:33:30.918Z,0.00
2024-05-09T00:34:30.685Z,0.00
2024-05-09T00:35:30.890Z,0.00
2024-05-09T00:36:30.607Z,0.00
2024-05-09T00:37:30.622Z,0.00
2024-05-09T00:38:30.747Z,0.00
2024-05-09T00:39:30.608Z,0.00
2024-05-09T00:40:38.277Z,0.00
2024-05-09T00:41:30.607Z,0.00
2024-05-09T00:42:30.606Z,0.00
2024-05-09T00:43:30.596Z,0.00
2024-05-09T00:44:30.692Z,0.00
2024-05-09T00:45:30.602Z,0.00
2024-05-09T00:46:30.590Z,0.00
2024-05-09T00:47:30.864Z,0.00
2024-05-09T00:48:30.816Z,0.00
2024-05-09T00:49:30.757Z,0.00
2024-05-09T00:50:36.131Z,0.00
2024-05-09T00:51:30.594Z,0.00
2024-05-09T00:52:30.586Z,0.00
2024-05-09T00:53:30.743Z,0.00
2024-05-09T00:54:30.578Z,0.00
2024-05-09T00:55:30.598Z,0.00
2024-05-09T00:56:30.618Z,0.00
2024-05-09T00:57:30.580Z,0.00
2024-05-09T00:58:30.610Z,0.00
2024-05-09T00:59:30.648Z,0.00
2024-05-09T01:00:35.892Z,0.00
2024-05-09T01:01:30.611Z,0.00
2024-05-09T01:02:30.635Z,0.00
2024-05-09T01:03:30.796Z,0.00
2024-05-09T01:04:30.603Z,0.00
2024-05-09T01:05:30.594Z,0.00
2024-05-09T01:06:30.564Z,0.00
2024-05-09T01:07:30.564Z,0.00
2024-05-09T01:08:30.767Z,0.00
2024-05-09T01:09:30.563Z,0.00
2024-05-09T01:10:34.648Z,0.00
2024-05-09T01:11:30.663Z,0.00
2024-05-09T01:12:30.715Z,0.00
2024-05-09T01:13:30.557Z,0.00
2024-05-09T01:14:30.679Z,0.00
2024-05-09T01:15:30.592Z,0.00
2024-05-09T01:16:30.560Z,0.00
2024-05-09T01:17:30.773Z,0.00
2024-05-09T01:18:30.763Z,0.00
2024-05-09T01:19:30.670Z,0.00
2024-05-09T01:20:37.528Z,0.00
2024-05-09T01:21:30.543Z,0.00
2024-05-09T01:22:30.539Z,0.00
2024-05-09T01:23:30.762Z,0.00
2024-05-09T01:24:30.579Z,0.00
2024-05-09T01:25:30.537Z,0.00
2024-05-09T01:26:30.652Z,0.00
2024-05-09T01:27:30.545Z,0.00
2024-05-09T01:28:30.540Z,0.00
2024-05-09T01:29:30.647Z,0.00
2024-05-09T01:30:34.552Z,0.00
2024-05-09T01:31:30.561Z,0.00
2024-05-09T01:32:30.722Z,0.00
2024-05-09T01:33:30.738Z,0.00
2024-05-09T01:34:30.521Z,0.00
2024-05-09T01:35:30.630Z,0.00
2024-05-09T01:36:30.533Z,0.00
2024-05-09T01:37:30.527Z,0.00
2024-05-09T01:38:30.664Z,0.00
2024-05-09T01:39:30.513Z,0.00
2024-05-09T01:41:30.569Z,0.00
2024-05-09T01:42:30.511Z,0.00
2024-05-09T01:43:30.832Z,0.00
2024-05-09T01:44:30.581Z,0.00
2024-05-09T01:45:30.517Z,0.00
2024-05-09T01:46:30.505Z,0.00
2024-05-09T01:47:30.843Z,0.00
2024-05-09T01:48:30.592Z,0.00
2024-05-09T01:49:30.618Z,0.00
2024-05-09T01:50:37.735Z,0.00
2024-05-09T01:51:30.494Z,0.00
2024-05-09T01:52:30.510Z,0.00
2024-05-09T01:53:30.595Z,0.00
2024-05-09T01:54:30.485Z,0.00
2024-05-09T01:55:30.812Z,0.00
2024-05-09T01:56:30.782Z,0.00
2024-05-09T01:57:30.496Z,0.00
2024-05-09T01:58:30.499Z,0.00
2024-05-09T01:59:30.514Z,0.00
2024-05-09T02:00:38.094Z,0.00
2024-05-09T02:01:30.605Z,0.00
2024-05-09T02:02:30.574Z,0.00
2024-05-09T02:03:30.637Z,0.00
2024-05-09T02:04:30.716Z,0.00
2024-05-09T02:05:30.503Z,0.00
2024-05-09T02:06:30.473Z,0.00
2024-05-09T02:07:30.556Z,0.00
2024-05-09T02:08:30.560Z,0.00
2024-05-09T02:09:30.466Z,0.00
2024-05-09T02:10:32.928Z,0.00
2024-05-09T02:11:30.527Z,0.00
2024-05-09T02:12:30.602Z,0.00
2024-05-09T02:13:30.458Z,0.00
2024-05-09T02:14:30.554Z,0.00
2024-05-09T02:15:30.451Z,0.00
2024-05-09T02:16:30.451Z,0.00
2024-05-09T02:17:30.675Z,0.00
2024-05-09T02:18:30.518Z,0.00
2024-05-09T02:19:30.551Z,0.00
2024-05-09T02:20:35.934Z,0.00
2024-05-09T02:21:30.453Z,0.00
2024-05-09T02:22:30.461Z,0.00
2024-05-09T02:23:30.536Z,0.00
2024-05-09T02:24:30.458Z,0.00
2024-05-09T02:25:30.479Z,0.00
2024-05-09T02:26:30.485Z,0.00
2024-05-09T02:27:30.445Z,0.00
2024-05-09T02:28:30.439Z,0.00
2024-05-09T02:29:30.497Z,0.00
2024-05-09T02:30:38.530Z,0.00
2024-05-09T02:31:30.429Z,0.00
2024-05-09T02:32:30.642Z,0.00
2024-05-09T02:33:30.677Z,0.00
2024-05-09T02:34:30.464Z,0.00
2024-05-09T02:35:30.528Z,0.00
2024-05-09T02:36:30.437Z,0.00
2024-05-09T02:37:30.418Z,0.00
2024-05-09T02:38:30.604Z,0.00
2024-05-09T02:39:30.436Z,0.00
2024-05-09T02:41:30.464Z,0.00
2024-05-09T02:42:30.410Z,0.00
2024-05-09T02:43:30.405Z,0.00
2024-05-09T02:44:30.502Z,0.00
2024-05-09T02:45:30.433Z,0.00
2024-05-09T02:46:30.403Z,0.00
2024-05-09T02:47:30.683Z,0.00
2024-05-09T02:48:30.502Z,4.00
2024-05-09T02:49:30.530Z,4.00
2024-05-09T02:50:37.371Z,4.00
2024-05-09T02:51:30.400Z,0.00
2024-05-09T02:52:30.601Z,0.00
2024-05-09T02:53:30.502Z,4.00
2024-05-09T02:54:30.392Z,4.00
2024-05-09T02:55:30.410Z,4.00
2024-05-09T02:56:30.466Z,4.00
2024-05-09T02:57:30.385Z,4.00
2024-05-09T02:58:30.384Z,8.00
2024-05-09T02:59:30.500Z,8.00
2024-05-09T03:00:37.944Z,12.00
2024-05-09T03:01:30.428Z,8.00
2024-05-09T03:02:30.508Z,8.00
2024-05-09T03:03:30.716Z,16.00
2024-05-09T03:04:30.416Z,16.00
2024-05-09T03:05:30.394Z,16.00
2024-05-09T03:06:30.367Z,20.00
2024-05-09T03:07:30.366Z,20.00
2024-05-09T03:08:30.441Z,24.00
2024-05-09T03:09:30.363Z,24.00
2024-05-09T03:10:35.688Z,32.00
2024-05-09T03:11:30.509Z,32.00
2024-05-09T03:12:30.371Z,40.00
2024-05-09T03:13:30.354Z,44.00
2024-05-09T03:14:30.411Z,48.00
2024-05-09T03:15:30.346Z,52.00
2024-05-09T03:16:30.351Z,56.00
2024-05-09T03:17:30.605Z,60.00
2024-05-09T03:18:30.444Z,68.00
2024-05-09T03:19:30.457Z,76.00
2024-05-09T03:20:33.836Z,80.00
2024-05-09T03:21:30.345Z,88.00
2024-05-09T03:22:30.335Z,92.00
2024-05-09T03:23:30.379Z,100.00
2024-05-09T03:24:30.338Z,108.00
2024-05-09T03:25:30.347Z,116.00
2024-05-09T03:26:30.404Z,124.00
2024-05-09T03:27:30.329Z,132.00
2024-05-09T03:28:30.349Z,144.00
2024-05-09T03:29:30.475Z,148.00
2024-05-09T03:30:39.170Z,160.00
2024-05-09T03:31:30.340Z,172.00
2024-05-09T03:32:30.475Z,180.00
2024-05-09T03:33:30.721Z,192.00
2024-05-09T03:34:30.340Z,200.00
2024-05-09T03:35:30.337Z,208.00
2024-05-09T03:36:30.316Z,224.00
2024-05-09T03:37:30.318Z,228.00
2024-05-09T03:38:30.360Z,244.00
2024-05-09T03:39:30.303Z,256.00
2024-05-09T03:40:31.163Z,264.00
2024-05-09T03:41:30.490Z,276.00
2024-05-09T03:42:30.303Z,284.00
2024-05-09T03:43:30.302Z,296.00
2024-05-09T03:44:30.462Z,312.00
2024-05-09T03:45:30.301Z,324.00
2024-05-09T03:46:30.291Z,332.00
2024-05-09T03:47:30.451Z,344.00
2024-05-09T03:48:30.320Z,356.00
2024-05-09T03:49:30.360Z,364.00
2024-05-09T03:50:35.225Z,376.00
2024-05-09T03:51:30.293Z,388.00
2024-05-09T03:52:30.286Z,400.00
2024-05-09T03:53:30.312Z,412.00
2024-05-09T03:54:30.280Z,424.00
2024-05-09T03:55:30.274Z,432.00
2024-05-09T03:56:30.365Z,444.00
2024-05-09T03:57:30.271Z,456.00
2024-05-09T03:58:30.268Z,468.00
2024-05-09T03:59:30.316Z,480.00
2024-05-09T04:00:36.920Z,488.00
2024-05-09T04:01:30.451Z,496.00
2024-05-09T04:02:30.423Z,508.00
2024-05-09T04:03:30.463Z,520.00
2024-05-09T04:04:30.350Z,532.00
2024-05-09T04:05:30.396Z,540.00
2024-05-09T04:06:30.264Z,552.00
2024-05-09T04:07:30.255Z,560.00
2024-05-09T04:08:30.292Z,568.00
2024-05-09T04:09:30.246Z,580.00
2024-05-09T04:10:33.677Z,588.00
2024-05-09T04:11:30.308Z,600.00
2024-05-09T04:12:30.294Z,608.00
2024-05-09T04:13:30.260Z,620.00
2024-05-09T04:14:30.340Z,632.00
2024-05-09T04:15:30.273Z,636.00
2024-05-09T04:16:30.231Z,648.00
2024-05-09T04:17:30.433Z,656.00
2024-05-09T04:18:30.350Z,668.00
2024-05-09T04:19:30.327Z,672.00
2024-05-09T04:20:37.470Z,684.00
2024-05-09T04:21:30.230Z,692.00
2024-05-09T04:22:30.222Z,700.00
2024-05-09T04:23:30.338Z,712.00
2024-05-09T04:24:30.216Z,720.00
2024-05-09T04:25:30.217Z,728.00
2024-05-09T04:26:30.340Z,732.00
2024-05-09T04:27:30.229Z,744.00
2024-05-09T04:28:30.224Z,752.00
2024-05-09T04:29:30.291Z,760.00
2024-05-09T04:30:36.931Z,768.00
2024-05-09T04:31:30.215Z,776.00
2024-05-09T04:32:30.348Z,780.00
2024-05-09T04:33:30.832Z,792.00
2024-05-09T04:34:30.310Z,800.00
2024-05-09T04:35:30.317Z,808.00
2024-05-09T04:36:30.195Z,816.00
2024-05-09T04:37:30.215Z,824.00
2024-05-09T04:38:30.306Z,828.00
2024-05-09T04:39:30.194Z,840.00
2024-05-09T04:40:34.271Z,848.00
2024-05-09T04:41:30.238Z,856.00
2024-05-09T04:42:30.185Z,860.00
2024-05-09T04:43:30.223Z,872.00
2024-05-09T04:44:30.239Z,876.00
2024-05-09T04:45:30.193Z,884.00
2024-05-09T04:46:30.167Z,892.00
2024-05-09T04:47:30.388Z,900.00
2024-05-09T04:48:30.275Z,904.00
2024-05-09T04:49:30.231Z,912.00
2024-05-09T04:50:36.618Z,920.00
2024-05-09T04:51:30.186Z,928.00
2024-05-09T04:52:30.157Z,932.00
2024-05-09T04:53:30.265Z,944.00
2024-05-09T04:54:36.026Z,952.00
2024-05-09T04:55:30.240Z,960.00
2024-05-09T04:56:30.225Z,968.00
2024-05-09T04:57:30.154Z,976.00
2024-05-09T04:58:30.151Z,988.00
2024-05-09T04:59:30.260Z,1012.00
2024-05-09T05:00:36.045Z,1032.00
2024-05-09T05:01:30.258Z,1044.00
2024-05-09T05:02:30.231Z,1048.00
2024-05-09T05:03:30.288Z,1052.00
2024-05-09T05:04:30.242Z,1060.00
2024-05-09T05:05:30.206Z,1076.00
2024-05-09T05:06:30.159Z,1076.00
2024-05-09T05:07:30.131Z,1080.00
2024-05-09T05:08:30.179Z,1088.00
2024-05-09T05:09:30.131Z,1088.00
2024-05-09T05:10:35.740Z,1092.00
2024-05-09T05:11:30.201Z,1100.00
2024-05-09T05:12:30.238Z,1104.00
2024-05-09T05:13:30.130Z,1108.00
2024-05-09T05:14:30.257Z,1108.00
2024-05-09T05:15:30.120Z,1120.00
2024-05-09T05:16:30.388Z,1128.00
2024-05-09T05:17:30.301Z,1140.00
2024-05-09T05:18:30.196Z,1156.00
2024-05-09T05:19:30.266Z,1160.00
2024-05-09T05:20:33.643Z,1172.00
2024-05-09T05:21:30.271Z,1180.00
2024-05-09T05:22:30.106Z,1176.00
2024-05-09T05:23:30.251Z,1160.00
2024-05-09T05:24:30.095Z,1132.00
2024-05-09T05:25:30.099Z,1108.00
2024-05-09T05:26:30.164Z,1100.00
2024-05-09T05:27:30.100Z,1112.00
2024-05-09T05:28:30.089Z,1136.00
2024-05-09T05:29:30.132Z,1160.00
2024-05-09T05:30:34.498Z,1180.00
2024-05-09T05:31:30.116Z,1220.00
2024-05-09T05:32:30.240Z,1260.00
2024-05-09T05:33:30.230Z,1268.00
2024-05-09T05:34:30.076Z,1268.00
2024-05-09T05:35:30.285Z,1268.00
2024-05-09T05:36:30.076Z,1288.00
2024-05-09T05:37:30.081Z,1304.00
2024-05-09T05:38:30.110Z,1312.00
2024-05-09T05:39:30.067Z,1332.00
2024-05-09T05:40:36.284Z,1348.00
2024-05-09T05:41:30.150Z,1368.00
2024-05-09T05:42:30.066Z,1376.00
2024-05-09T05:43:30.093Z,1380.00
2024-05-09T05:44:30.122Z,1388.00
2024-05-09T05:45:30.079Z,1380.00
2024-05-09T05:46:30.065Z,1404.00
2024-05-09T05:47:30.218Z,1436.00
2024-05-09T05:48:30.135Z,1476.00
2024-05-09T05:49:30.119Z,1500.00
2024-05-09T05:50:35.556Z,1524.00
2024-05-09T05:51:30.049Z,1548.00
2024-05-09T05:52:30.042Z,1564.00
2024-05-09T05:53:30.078Z,1584.00
2024-05-09T05:54:30.068Z,1596.00
2024-05-09T05:55:30.058Z,1608.00
2024-05-09T05:56:30.082Z,1624.00
2024-05-09T05:57:30.067Z,1640.00
2024-05-09T05:58:30.049Z,1644.00
2024-05-09T05:59:30.106Z,1652.00
2024-05-09T06:00:37.476Z,1668.00
2024-05-09T06:01:30.099Z,1680.00
2024-05-09T06:02:30.136Z,1688.00
2024-05-09T06:03:30.502Z,1696.00
2024-05-09T06:04:30.104Z,1696.00
2024-05-09T06:05:30.102Z,1700.00
2024-05-09T06:06:30.022Z,1704.00
2024-05-09T06:07:30.033Z,1712.00
2024-05-09T06:08:30.636Z,1720.00
2024-05-09T06:09:30.015Z,1720.00
2024-05-09T06:10:37.584Z,1728.00
2024-05-09T06:11:30.077Z,1720.00
2024-05-09T06:12:30.065Z,1708.00
2024-05-09T06:13:30.011Z,1688.00
2024-05-09T06:14:30.227Z,1768.00
2024-05-09T06:15:30.325Z,1764.00
2024-05-09T06:16:30.019Z,1772.00
2024-05-09T06:17:30.155Z,1776.00
2024-05-09T06:18:30.426Z,1776.00
2024-05-09T06:19:30.368Z,1788.00
2024-05-09T06:20:35.364Z,1804.00
2024-05-09T06:21:30.008Z,1824.00
2024-05-09T06:22:30.042Z,1840.00
2024-05-09T06:23:30.027Z,1848.00
2024-05-09T06:24:29.997Z,1868.00
2024-05-09T06:25:30.002Z,1896.00
2024-05-09T06:26:30.098Z,1952.00
2024-05-09T06:27:29.989Z,1996.00
2024-05-09T06:28:29.993Z,2024.00
2024-05-09T06:29:30.059Z,2048.00
2024-05-09T06:30:37.205Z,2060.00
2024-05-09T06:31:29.988Z,2076.00
2024-05-09T06:32:30.102Z,2108.00
2024-05-09T06:33:30.284Z,2152.00
2024-05-09T06:34:30.153Z,2176.00
2024-05-09T06:35:30.220Z,2192.00
2024-05-09T06:36:29.998Z,2188.00
2024-05-09T06:37:29.978Z,2180.00
2024-05-09T06:38:30.053Z,2180.00
2024-05-09T06:39:29.988Z,2188.00
2024-05-09T06:40:36.738Z,2192.00
2024-05-09T06:41:30.061Z,2184.00
2024-05-09T06:42:29.966Z,2172.00
2024-05-09T06:43:29.967Z,2144.00
2024-05-09T06:44:30.116Z,2112.00
2024-05-09T06:45:30.001Z,2148.00
2024-05-09T06:46:29.998Z,2200.00
2024-05-09T06:47:30.070Z,2240.00
2024-05-09T06:48:30.189Z,2260.00
2024-05-09T06:49:30.216Z,2276.00
2024-05-09T06:50:35.785Z,2272.00
2024-05-09T06:51:29.961Z,2244.00
2024-05-09T06:52:29.983Z,2228.00
2024-05-09T06:53:29.992Z,2208.00
2024-05-09T06:54:29.960Z,2200.00
2024-05-09T06:55:29.950Z,2184.00
2024-05-09T06:56:30.116Z,2168.00
2024-05-09T06:57:29.954Z,2164.00
2024-05-09T06:58:29.948Z,2200.00
2024-05-09T06:59:30.112Z,2212.00
2024-05-09T07:00:35.631Z,2216.00
2024-05-09T07:01:30.046Z,2220.00
2024-05-09T07:02:30.058Z,2224.00
2024-05-09T07:03:30.054Z,2276.00
2024-05-09T07:04:30.032Z,2300.00
2024-05-09T07:05:29.956Z,2308.00
2024-05-09T07:06:29.946Z,2324.00
2024-05-09T07:07:29.941Z,2352.00
2024-05-09T07:08:29.982Z,2392.00
2024-05-09T07:09:29.940Z,2456.00
2024-05-09T07:10:34.825Z,2612.00
2024-05-09T07:11:30.008Z,3204.00
2024-05-09T07:12:30.184Z,3924.00
2024-05-09T07:13:29.938Z,5040.00
2024-05-09T07:14:30.280Z,13916.00
2024-05-09T07:15:29.929Z,29152.00
2024-05-09T07:16:29.931Z,45376.00
2024-05-09T07:17:30.204Z,50048.00
2024-05-09T07:18:30.130Z,60128.00
2024-05-09T07:19:30.010Z,52512.00
2024-05-09T07:20:34.510Z,51904.00
2024-05-09T07:21:29.937Z,56352.00
2024-05-09T07:22:29.958Z,59008.00
2024-05-09T07:23:29.963Z,59520.00
2024-05-09T07:24:29.956Z,64448.00
2024-05-09T07:25:30.479Z,59360.00
2024-05-09T07:26:30.032Z,55232.00
2024-05-09T07:27:29.962Z,55968.00
2024-05-09T07:28:29.928Z,56352.00
2024-05-09T07:29:30.013Z,56640.00
2024-05-09T07:30:33.597Z,53600.00
2024-05-09T07:31:29.935Z,49856.00
2024-05-09T07:32:30.112Z,54048.00
2024-05-09T07:33:30.099Z,64800.00
2024-05-09T07:34:30.014Z,65280.00
2024-05-09T07:35:30.378Z,54944.00
2024-05-09T07:36:29.945Z,56576.00
2024-05-09T07:37:29.941Z,61408.00
2024-05-09T07:38:29.959Z,58112.00
2024-05-09T07:39:29.943Z,53632.00
2024-05-09T07:40:35.643Z,58240.00
2024-05-09T07:41:30.028Z,53856.00
2024-05-09T07:42:29.961Z,23296.00
2024-05-09T07:43:29.950Z,6936.00
2024-05-09T07:44:30.115Z,5768.00
2024-05-09T07:45:46.003Z,5392.00
2024-05-09T07:47:36.966Z,4920.00
2024-05-09T07:48:57.192Z,4768.00
2024-05-09T07:50:01.200Z,4944.00
2024-05-09T07:53:08.258Z,5260.00
2024-05-09T07:53:32.604Z,5288.00
2024-05-09T07:53:40.304Z,5368.00
2024-05-09T07:54:30.210Z,5552.00
2024-05-09T07:55:30.282Z,6600.00
2024-05-09T07:56:30.548Z,13980.00
2024-05-09T07:57:30.019Z,28192.00
2024-05-09T07:58:30.007Z,45696.00
2024-05-09T07:59:31.326Z,61440.00
2024-05-09T08:00:31.830Z,58912.00
2024-05-09T08:01:30.115Z,48896.00
2024-05-09T08:02:30.211Z,37664.00
2024-05-09T08:03:30.170Z,23168.00
2024-05-09T08:04:30.136Z,9420.00
2024-05-09T08:05:30.231Z,6884.00
2024-05-09T08:06:30.103Z,6700.00
2024-05-09T08:07:30.056Z,6524.00
2024-05-09T08:08:30.493Z,6336.00
2024-05-09T08:09:30.131Z,6252.00
2024-05-09T08:10:30.097Z,6120.00
2024-05-09T08:11:30.105Z,6048.00
2024-05-09T08:12:30.118Z,6032.00
2024-05-09T08:13:30.071Z,6068.00
2024-05-09T08:14:30.094Z,6128.00
2024-05-09T08:15:30.108Z,6188.00
2024-05-09T08:16:30.123Z,6268.00
2024-05-09T08:17:30.145Z,6316.00
2024-05-09T08:18:30.467Z,6388.00
2024-05-09T08:19:30.138Z,6516.00
2024-05-09T08:20:33.709Z,6712.00
2024-05-09T08:21:30.141Z,7036.00
2024-05-09T08:22:30.102Z,7764.00
2024-05-09T08:23:30.109Z,11504.00
2024-05-09T08:24:30.169Z,21792.00
2024-05-09T08:25:30.115Z,32832.00
2024-05-09T08:26:30.117Z,44352.00
2024-05-09T08:27:30.148Z,56928.00
2024-05-09T08:28:30.185Z,65216.00
2024-05-09T08:29:30.134Z,65888.00
2024-05-09T08:30:36.332Z,63872.00
2024-05-09T08:31:30.315Z,62656.00
2024-05-09T08:32:30.253Z,72864.00
2024-05-09T08:33:30.494Z,77408.00
2024-05-09T08:34:30.269Z,77600.00
2024-05-09T08:35:30.152Z,82400.00
2024-05-09T08:36:30.224Z,80064.00
2024-05-09T08:37:35.000Z,67520.00
2024-05-09T08:38:30.178Z,53408.00
2024-05-09T08:39:30.221Z,39616.00
2024-05-09T08:40:34.482Z,26624.00
2024-05-09T08:41:30.185Z,16256.00
2024-05-09T08:42:30.212Z,8944.00
2024-05-09T08:43:30.286Z,7912.00
2024-05-09T08:44:30.223Z,8080.00
2024-05-09T08:45:30.400Z,7608.00
2024-05-09T08:46:30.355Z,7504.00
2024-05-09T08:47:30.339Z,7496.00
2024-05-09T08:48:30.594Z,7644.00
2024-05-09T08:49:30.336Z,11836.00
2024-05-09T08:50:37.712Z,21472.00
2024-05-09T08:51:30.335Z,28320.00
2024-05-09T08:52:30.246Z,28992.00
2024-05-09T08:53:30.247Z,29472.00
2024-05-09T08:54:30.353Z,29024.00
2024-05-09T08:55:30.277Z,23648.00
2024-05-09T08:56:30.279Z,20672.00
2024-05-09T08:57:30.283Z,23456.00
2024-05-09T08:58:30.277Z,24384.00
2024-05-09T08:59:30.281Z,2680.00
2024-05-09T09:00:36.563Z,2764.00
2024-05-09T09:01:30.388Z,2772.00
2024-05-09T09:02:30.510Z,2640.00
2024-05-09T09:03:30.867Z,2648.00
2024-05-09T09:04:30.506Z,2656.00
2024-05-09T09:05:30.454Z,2884.00
2024-05-09T09:06:30.395Z,2732.00
2024-05-09T09:07:30.379Z,2952.00
2024-05-09T09:08:30.337Z,3040.00
2024-05-09T09:09:30.459Z,3092.00
2024-05-09T09:10:32.391Z,3152.00
2024-05-09T09:11:30.391Z,3180.00
2024-05-09T09:12:30.458Z,3168.00
2024-05-09T09:13:30.389Z,3216.00
2024-05-09T09:14:30.367Z,3256.00
2024-05-09T09:15:30.424Z,3272.00
2024-05-09T09:16:30.416Z,3276.00
2024-05-09T09:17:30.458Z,3264.00
2024-05-09T09:18:31.039Z,3268.00
2024-05-09T09:19:30.429Z,3256.00
2024-05-09T09:20:36.355Z,3228.00
2024-05-09T09:21:30.455Z,3260.00
2024-05-09T09:22:30.410Z,3264.00
2024-05-09T09:23:30.837Z,3260.00
2024-05-09T09:24:30.440Z,3264.00
2024-05-09T09:25:30.417Z,3312.00
2024-05-09T09:26:30.430Z,3348.00
2024-05-09T09:27:30.448Z,3384.00
2024-05-09T09:28:30.427Z,3432.00
2024-05-09T09:29:30.425Z,3520.00
2024-05-09T09:30:36.740Z,3676.00
2024-05-09T09:31:30.603Z,3712.00
2024-05-09T09:32:30.609Z,3672.00
2024-05-09T09:33:30.512Z,3692.00
2024-05-09T09:34:30.642Z,3728.00
2024-05-09T09:35:30.475Z,3640.00
2024-05-09T09:36:30.487Z,3580.00
2024-05-09T09:37:30.464Z,3476.00
2024-05-09T09:38:30.461Z,3432.00
2024-05-09T09:39:30.511Z,3456.00
2024-05-09T09:40:32.962Z,3536.00
2024-05-09T09:41:30.467Z,3560.00
2024-05-09T09:42:30.525Z,3540.00
2024-05-09T09:43:30.489Z,3468.00
2024-05-09T09:44:30.478Z,3444.00
2024-05-09T09:45:30.533Z,3424.00
2024-05-09T09:46:30.525Z,3432.00
2024-05-09T09:47:30.589Z,3464.00
2024-05-09T09:48:30.867Z,3496.00
2024-05-09T09:49:30.502Z,3532.00
2024-05-09T09:50:34.482Z,3584.00
2024-05-09T09:51:30.541Z,3600.00
2024-05-09T09:52:30.520Z,3612.00
2024-05-09T09:53:30.492Z,3644.00
2024-05-09T09:54:30.558Z,3664.00
2024-05-09T09:55:30.500Z,3692.00
2024-05-09T09:56:30.530Z,3680.00
2024-05-09T09:57:30.540Z,3664.00
2024-05-09T09:58:30.576Z,3660.00
2024-05-09T09:59:30.504Z,3648.00
2024-05-09T10:00:33.254Z,3276.00
2024-05-09T10:01:30.582Z,3396.00
2024-05-09T10:02:30.694Z,3392.00
2024-05-09T10:03:30.704Z,3380.00
2024-05-09T10:04:30.635Z,3412.00
2024-05-09T10:05:31.052Z,3420.00
2024-05-09T10:06:30.610Z,3400.00
2024-05-09T10:07:30.535Z,3420.00
2024-05-09T10:08:30.516Z,3432.00
2024-05-09T10:09:30.631Z,3436.00
2024-05-09T10:10:32.887Z,3444.00
2024-05-09T10:11:31.676Z,3452.00
2024-05-09T10:12:30.622Z,3452.00
2024-05-09T10:13:30.571Z,3448.00
2024-05-09T10:14:30.535Z,3464.00
2024-05-09T10:15:30.599Z,3456.00
2024-05-09T10:16:30.598Z,3452.00
2024-05-09T10:17:30.624Z,3440.00
2024-05-09T10:18:32.756Z,3440.00
2024-05-09T10:19:30.643Z,3460.00
2024-05-09T10:21:30.606Z,3472.00
2024-05-09T10:22:30.583Z,3496.00
2024-05-09T10:23:30.627Z,3484.00
2024-05-09T10:24:30.632Z,3444.00
2024-05-09T10:25:30.607Z,3420.00
2024-05-09T10:26:30.556Z,3224.00
2024-05-09T10:27:30.688Z,3244.00
2024-05-09T10:28:30.626Z,3216.00
2024-05-09T10:29:30.559Z,3532.00
2024-05-09T10:30:35.817Z,3544.00
2024-05-09T10:31:30.600Z,3576.00
2024-05-09T10:32:30.667Z,3628.00
2024-05-09T10:33:30.800Z,3632.00
2024-05-09T10:34:30.653Z,3632.00
2024-05-09T10:35:30.564Z,3636.00
2024-05-09T10:36:30.681Z,3632.00
2024-05-09T10:37:30.695Z,3628.00
2024-05-09T10:38:30.585Z,3648.00
2024-05-09T10:39:30.615Z,3680.00
2024-05-09T10:40:31.844Z,3720.00
2024-05-09T10:41:30.599Z,3752.00
2024-05-09T10:42:30.630Z,3596.00
2024-05-09T10:43:30.659Z,3596.00
2024-05-09T10:44:30.600Z,3600.00
2024-05-09T10:45:30.628Z,3572.00
2024-05-09T10:46:30.699Z,3584.00
2024-05-09T10:47:30.633Z,3588.00
2024-05-09T10:48:30.673Z,3576.00
2024-05-09T10:49:30.610Z,3576.00
2024-05-09T10:50:34.164Z,3584.00
2024-05-09T10:51:30.643Z,3576.00
2024-05-09T10:52:30.612Z,3588.00
2024-05-09T10:53:30.626Z,3564.00
2024-05-09T10:54:30.618Z,3536.00
2024-05-09T10:55:30.638Z,3576.00
2024-05-09T10:56:30.631Z,3564.00
2024-05-09T10:57:30.649Z,3552.00
2024-05-09T10:58:30.606Z,3564.00
2024-05-09T10:59:30.604Z,3600.00
2024-05-09T11:00:35.657Z,3564.00
2024-05-09T11:01:30.686Z,3576.00
2024-05-09T11:02:30.748Z,3604.00
2024-05-09T11:03:30.790Z,3608.00
2024-05-09T11:04:30.694Z,3616.00
2024-05-09T11:05:30.701Z,3612.00
2024-05-09T11:06:30.660Z,3584.00
2024-05-09T11:07:30.738Z,3580.00
2024-05-09T11:08:30.633Z,3564.00
2024-05-09T11:09:30.674Z,3572.00
2024-05-09T11:10:33.987Z,3588.00
2024-05-09T11:11:30.649Z,3584.00
2024-05-09T11:12:30.638Z,3584.00
2024-05-09T11:13:30.819Z,3544.00
2024-05-09T11:14:30.628Z,3504.00
2024-05-09T11:15:30.736Z,3476.00
2024-05-09T11:16:30.683Z,3456.00
2024-05-09T11:17:30.767Z,3476.00
2024-05-09T11:18:34.654Z,3436.00
2024-05-09T11:19:30.698Z,3444.00
2024-05-09T11:20:34.786Z,3440.00
2024-05-09T11:21:30.655Z,3420.00
2024-05-09T11:22:30.640Z,3412.00
2024-05-09T11:23:31.047Z,3384.00
2024-05-09T11:24:30.695Z,3136.00
2024-05-09T11:25:30.651Z,3580.00
2024-05-09T11:26:30.647Z,3556.00
2024-05-09T11:27:30.666Z,3564.00
2024-05-09T11:28:30.645Z,3560.00
2024-05-09T11:29:30.658Z,3548.00
2024-05-09T11:30:32.330Z,3548.00
2024-05-09T11:31:30.726Z,3552.00
2024-05-09T11:32:30.860Z,3548.00
2024-05-09T11:33:30.776Z,3544.00
2024-05-09T11:34:30.705Z,3564.00
2024-05-09T11:35:30.673Z,3560.00
2024-05-09T11:36:30.685Z,3516.00
2024-05-09T11:37:31.340Z,3540.00
2024-05-09T11:38:30.659Z,3536.00
2024-05-09T11:39:30.694Z,3532.00
2024-05-09T11:40:34.247Z,3536.00
2024-05-09T11:41:30.672Z,3544.00
2024-05-09T11:42:30.775Z,3524.00
2024-05-09T11:43:30.854Z,3544.00
2024-05-09T11:44:30.695Z,3540.00
2024-05-09T11:45:30.717Z,3544.00
2024-05-09T11:46:30.721Z,3536.00
2024-05-09T11:47:30.736Z,3540.00
2024-05-09T11:48:30.968Z,3536.00
2024-05-09T11:49:30.849Z,3524.00
2024-05-09T11:50:35.288Z,3516.00
2024-05-09T11:51:30.722Z,3500.00
2024-05-09T11:52:30.683Z,3484.00
2024-05-09T11:53:30.687Z,3468.00
2024-05-09T11:54:30.736Z,3460.00
2024-05-09T11:55:30.891Z,3472.00
2024-05-09T11:56:30.698Z,3476.00
2024-05-09T11:57:30.731Z,3480.00
2024-05-09T11:58:30.699Z,3476.00
2024-05-09T11:59:30.703Z,3492.00
2024-05-09T12:00:36.606Z,3480.00
2024-05-09T12:01:30.838Z,3464.00
2024-05-09T12:02:30.843Z,3472.00
2024-05-09T12:03:30.884Z,3488.00
2024-05-09T12:04:30.809Z,3472.00
2024-05-09T12:05:30.836Z,3460.00
2024-05-09T12:06:30.795Z,3448.00
2024-05-09T12:07:30.732Z,3472.00
2024-05-09T12:08:30.721Z,3468.00
2024-05-09T12:09:30.760Z,3452.00
2024-05-09T12:10:33.861Z,3488.00
2024-05-09T12:11:30.799Z,3476.00
2024-05-09T12:12:30.774Z,3452.00
2024-05-09T12:13:30.768Z,3432.00
2024-05-09T12:14:30.727Z,3468.00
2024-05-09T12:15:30.756Z,3500.00
2024-05-09T12:16:30.792Z,3536.00
2024-05-09T12:17:30.916Z,3572.00
2024-05-09T12:18:30.851Z,3572.00
2024-05-09T12:19:30.760Z,3596.00
2024-05-09T12:21:30.795Z,4088.00
2024-05-09T12:22:30.755Z,4288.00
2024-05-09T12:23:30.744Z,4388.00
2024-05-09T12:24:30.806Z,4404.00
2024-05-09T12:25:30.750Z,4360.00
2024-05-09T12:26:30.747Z,4316.00
2024-05-09T12:27:30.768Z,4372.00
2024-05-09T12:28:30.787Z,4328.00
2024-05-09T12:29:30.757Z,4316.00
2024-05-09T12:30:36.717Z,4276.00